createdAt,value
2023-03-28T00:00:25.087Z,4.65
2023-03-28T00:03:29.655Z,4.62
2023-03-28T00:06:32.211Z,5.40
2023-03-28T00:09:34.832Z,4.37
2023-03-28T00:12:37.236Z,4.57
2023-03-28T00:15:41.393Z,4.35
2023-03-28T00:18:44.142Z,8.25
2023-03-28T00:21:49.671Z,4.53
2023-03-28T00:24:53.744Z,3.50
2023-03-28T00:27:56.586Z,4.10
2023-03-28T00:31:07.086Z,5.85
2023-03-28T00:34:09.815Z,3.85
2023-03-28T00:37:17.429Z,5.40
2023-03-28T00:40:20.151Z,4.80
2023-03-28T00:43:55.939Z,4.28
2023-03-28T00:46:58.740Z,4.47
2023-03-28T00:50:13.673Z,3.70
2023-03-28T00:53:23.633Z,4.60
2023-03-28T00:56:30.055Z,5.07
2023-03-28T00:59:35.760Z,4.95
2023-03-28T01:02:43.172Z,3.85
2023-03-28T01:05:48.023Z,3.50
2023-03-28T01:08:51.680Z,4.73
2023-03-28T01:11:58.888Z,7.35
2023-03-28T01:15:03.204Z,5.18
2023-03-28T01:18:13.131Z,5.80
2023-03-28T01:22:02.495Z,3.65
2023-03-28T01:25:33.011Z,5.10
2023-03-28T01:28:49.708Z,4.45
2023-03-28T01:31:58.227Z,3.67
2023-03-28T01:35:29.860Z,5.03
2023-03-28T01:38:54.925Z,5.35
2023-03-28T01:42:24.076Z,4.90
2023-03-28T01:45:55.056Z,4.68
2023-03-28T01:49:08.026Z,3.80
2023-03-28T01:52:23.073Z,6.00
2023-03-28T01:55:41.955Z,6.07
2023-03-28T01:59:03.870Z,4.43
2023-03-28T02:02:31.409Z,7.18
2023-03-28T02:05:35.066Z,6.82
2023-03-28T02:08:41.679Z,4.70
2023-03-28T02:11:49.540Z,3.47
2023-03-28T02:14:58.198Z,4.57
2023-03-28T02:18:12.501Z,6.78
2023-03-28T02:21:21.397Z,4.43
2023-03-28T02:24:25.981Z,5.22
2023-03-28T02:27:28.817Z,5.05
2023-03-28T02:30:32.631Z,5.53
2023-03-28T02:33:47.112Z,2.08
2023-03-28T02:36:59.526Z,2.22
2023-03-28T02:40:14.485Z,3.17
2023-03-28T02:43:38.530Z,3.62
2023-03-28T02:47:01.286Z,2.53
2023-03-28T02:50:14.821Z,4.90
2023-03-28T02:53:33.089Z,2.65
2023-03-28T02:56:42.712Z,2.75
2023-03-28T02:59:53.872Z,3.40
2023-03-28T03:02:57.227Z,6.17
2023-03-28T03:06:01.758Z,2.20
2023-03-28T03:09:04.966Z,2.47
2023-03-28T03:12:07.728Z,2.55
2023-03-28T03:15:11.905Z,3.62
2023-03-28T03:18:17.152Z,3.40
2023-03-28T03:21:20.171Z,4.07
2023-03-28T03:24:23.325Z,2.58
2023-03-28T03:27:25.820Z,3.10
2023-03-28T03:30:28.855Z,4.72
2023-03-28T03:33:32.836Z,2.60
2023-03-28T03:36:36.118Z,2.55
2023-03-28T03:39:41.412Z,3.53
2023-03-28T03:42:44.073Z,4.15
2023-03-28T03:45:46.575Z,3.30
2023-03-28T03:48:50.444Z,4.93
2023-03-28T03:51:53.208Z,3.10
2023-03-28T03:54:55.918Z,2.20
2023-03-28T03:57:58.501Z,2.87
2023-03-28T04:01:01.937Z,3.03
2023-03-28T04:04:07.761Z,3.25
2023-03-28T04:07:10.875Z,2.87
2023-03-28T04:10:13.800Z,3.65
2023-03-28T04:13:16.160Z,4.47
2023-03-28T04:16:20.997Z,3.83
2023-03-28T04:19:24.398Z,2.95
2023-03-28T04:22:30.803Z,3.37
2023-03-28T04:25:33.306Z,2.15
2023-03-28T04:28:36.803Z,2.53
2023-03-28T04:31:40.033Z,2.17
2023-03-28T04:34:46.074Z,5.70
2023-03-28T04:37:50.031Z,9.52
2023-03-28T04:40:57.952Z,8.82
2023-03-28T04:44:01.910Z,6.37
2023-03-28T04:47:08.705Z,5.90
2023-03-28T04:50:13.140Z,9.55
2023-03-28T04:53:17.430Z,7.30
2023-03-28T04:56:23.470Z,7.87
2023-03-28T04:59:26.239Z,8.07
2023-03-28T05:02:29.123Z,5.28
2023-03-28T05:05:32.191Z,3.33
2023-03-28T05:08:34.597Z,4.77
2023-03-28T05:11:37.303Z,9.38
2023-03-28T05:14:40.731Z,9.90
2023-03-28T05:17:44.907Z,5.57
2023-03-28T05:20:49.587Z,7.75
2023-03-28T05:23:53.743Z,8.90
2023-03-28T05:26:56.752Z,11.02
2023-03-28T05:29:59.715Z,7.93
2023-03-28T05:33:03.386Z,7.75
2023-03-28T05:36:06.604Z,10.57
2023-03-28T05:39:09.784Z,11.60
2023-03-28T05:42:12.864Z,12.52
2023-03-28T05:45:16.116Z,9.43
2023-03-28T05:48:19.324Z,11.75
2023-03-28T05:51:22.532Z,7.63
2023-03-28T05:54:25.443Z,7.47
2023-03-28T05:57:28.287Z,5.97
2023-03-28T06:00:31.022Z,7.15
2023-03-28T06:03:33.848Z,10.43
2023-03-28T06:06:39.270Z,9.83
2023-03-28T06:09:42.983Z,4.93
2023-03-28T06:12:45.594Z,8.45
2023-03-28T06:15:48.447Z,7.22
2023-03-28T06:18:52.665Z,6.05
2023-03-28T06:22:15.561Z,5.90
2023-03-28T06:25:19.916Z,5.20
2023-03-28T06:28:22.997Z,2.78
2023-03-28T06:31:29.680Z,3.33
2023-03-28T06:34:32.739Z,4.03
2023-03-28T06:37:35.481Z,2.97
2023-03-28T06:40:38.687Z,2.90
2023-03-28T06:43:41.558Z,1.65
2023-03-28T06:46:44.394Z,1.95
2023-03-28T06:49:47.416Z,2.58
2023-03-28T06:52:50.732Z,1.70
2023-03-28T06:55:54.339Z,2.83
2023-03-28T06:58:57.752Z,2.42
2023-03-28T07:02:00.718Z,3.08
2023-03-28T07:05:03.789Z,2.70
2023-03-28T07:08:10.033Z,2.23
2023-03-28T07:11:13.190Z,2.90
2023-03-28T07:14:16.101Z,2.15
2023-03-28T07:17:18.894Z,1.80
2023-03-28T07:20:21.728Z,3.37
2023-03-28T07:23:25.204Z,2.50
2023-03-28T07:26:28.744Z,2.80
2023-03-28T07:29:31.565Z,5.18
2023-03-28T07:32:47.166Z,2.72
2023-03-28T07:35:56.368Z,2.42
2023-03-28T07:38:58.861Z,6.43
2023-03-28T07:42:01.836Z,3.07
2023-03-28T07:45:04.735Z,2.95
2023-03-28T07:48:08.023Z,4.50
2023-03-28T07:51:11.141Z,3.47
2023-03-28T07:54:17.779Z,2.23
2023-03-28T07:57:20.776Z,2.50
2023-03-28T08:00:25.066Z,1.40
2023-03-28T08:03:29.934Z,2.90
2023-03-28T08:06:34.225Z,1.50
2023-03-28T08:09:37.372Z,3.03
2023-03-28T08:12:41.728Z,2.17
2023-03-28T08:15:44.821Z,2.65
2023-03-28T08:18:52.390Z,2.42
2023-03-28T08:22:02.739Z,2.95
2023-03-28T08:25:07.712Z,1.87
2023-03-28T08:28:11.519Z,2.53
2023-03-28T08:31:16.187Z,1.98
2023-03-28T08:34:20.472Z,3.50
2023-03-28T08:37:25.627Z,2.05
2023-03-28T08:40:29.510Z,3.28
2023-03-28T08:43:55.458Z,2.33
2023-03-28T08:47:04.732Z,2.40
2023-03-28T08:50:15.754Z,3.90
2023-03-28T08:53:43.931Z,2.80
2023-03-28T08:56:57.202Z,3.08
2023-03-28T09:00:17.645Z,4.53
2023-03-28T09:03:23.165Z,3.78
2023-03-28T09:06:40.119Z,3.20
2023-03-28T09:09:53.861Z,5.62
2023-03-28T09:13:22.791Z,4.75
2023-03-28T09:16:53.202Z,4.93
2023-03-28T09:20:14.242Z,2.35
2023-03-28T09:23:49.117Z,3.62
2023-03-28T09:27:15.005Z,2.45
2023-03-28T09:30:22.820Z,3.03
2023-03-28T09:33:39.187Z,2.03
2023-03-28T09:36:49.565Z,2.53
2023-03-28T09:39:56.539Z,3.53
2023-03-28T09:43:37.312Z,2.53
2023-03-28T09:46:44.447Z,6.15
2023-03-28T09:49:49.501Z,1.70
2023-03-28T09:52:56.027Z,1.67
2023-03-28T09:56:06.018Z,2.35
2023-03-28T09:59:28.232Z,1.67
2023-03-28T10:02:33.848Z,2.42
2023-03-28T10:05:40.846Z,2.80
2023-03-28T10:08:44.768Z,2.45
2023-03-28T10:11:56.485Z,1.65
2023-03-28T10:14:59.859Z,4.72
2023-03-28T10:18:05.900Z,3.08
2023-03-28T10:21:15.369Z,1.80
2023-03-28T10:24:22.153Z,1.55
2023-03-28T10:27:32.036Z,2.53
2023-03-28T10:30:36.928Z,4.43
2023-03-28T10:33:46.690Z,2.22
2023-03-28T10:36:50.095Z,2.83
2023-03-28T10:40:07.902Z,2.28
2023-03-28T10:43:15.815Z,3.25
2023-03-28T10:46:27.056Z,2.45
2023-03-28T10:49:53.015Z,2.25
2023-03-28T10:53:17.229Z,1.33
2023-03-28T10:56:29.565Z,1.92
2023-03-28T11:00:06.840Z,2.95
2023-03-28T11:03:19.783Z,2.70
2023-03-28T11:06:51.581Z,3.00
2023-03-28T11:10:03.735Z,1.90
2023-03-28T11:13:21.904Z,1.20
2023-03-28T11:17:00.654Z,2.78
2023-03-28T11:20:17.842Z,3.47
2023-03-28T11:23:49.057Z,1.85
2023-03-28T11:27:15.650Z,2.03
2023-03-28T11:30:26.758Z,1.95
2023-03-28T11:33:58.142Z,3.45
2023-03-28T11:37:15.967Z,5.45
2023-03-28T11:40:25.500Z,2.47
2023-03-28T11:43:56.072Z,2.40
2023-03-28T11:47:04.125Z,2.00
2023-03-28T11:50:47.367Z,1.95
2023-03-28T11:53:59.100Z,2.05
2023-03-28T11:57:11.808Z,4.07
2023-03-28T12:00:38.559Z,1.83
2023-03-28T12:03:59.076Z,4.28
2023-03-28T12:07:18.991Z,2.53
2023-03-28T12:10:38.291Z,3.72
2023-03-28T12:14:08.891Z,3.10
2023-03-28T12:17:23.217Z,3.40
2023-03-28T12:20:36.476Z,4.07
2023-03-28T12:23:51.036Z,2.55
2023-03-28T12:27:00.968Z,2.00
2023-03-28T12:30:13.922Z,2.30
2023-03-28T12:33:44.675Z,1.70
2023-03-28T12:36:55.284Z,2.97
2023-03-28T12:40:14.487Z,1.58
2023-03-28T12:43:21.170Z,4.75
2023-03-28T12:46:46.709Z,2.60
2023-03-28T12:49:55.993Z,1.80
2023-03-28T12:52:59.191Z,2.10
2023-03-28T12:56:03.675Z,1.55
2023-03-28T12:59:35.287Z,2.33
2023-03-28T13:02:41.232Z,3.27
2023-03-28T13:06:14.395Z,2.40
2023-03-28T13:09:22.892Z,1.90
2023-03-28T13:12:34.398Z,1.67
2023-03-28T13:16:09.372Z,1.92
2023-03-28T13:19:16.457Z,1.73
2023-03-28T13:22:42.314Z,2.30
2023-03-28T13:25:54.671Z,2.40
2023-03-28T13:29:00.549Z,0.70
2023-03-28T13:32:04.662Z,1.10
2023-03-28T13:35:07.612Z,1.97
2023-03-28T13:38:28.109Z,1.40
2023-03-28T13:41:56.577Z,0.70
2023-03-28T13:45:06.207Z,1.35
2023-03-28T13:48:13.432Z,0.55
2023-03-28T13:51:22.392Z,0.50
2023-03-28T13:54:30.162Z,0.60
2023-03-28T13:57:32.718Z,1.08
2023-03-28T14:00:36.281Z,0.95
2023-03-28T14:03:43.197Z,0.60
2023-03-28T14:06:47.291Z,3.90
2023-03-28T14:09:51.274Z,1.73
2023-03-28T14:12:55.990Z,1.50
2023-03-28T14:15:58.673Z,1.08
2023-03-28T14:19:03.797Z,26.27
2023-03-28T14:22:13.459Z,2.50
2023-03-28T14:25:16.379Z,1.70
2023-03-28T14:28:19.126Z,1.05
2023-03-28T14:31:30.652Z,2.35
2023-03-28T14:34:38.890Z,3.00
2023-03-28T14:37:48.242Z,1.10
2023-03-28T14:40:51.218Z,1.80
2023-03-28T14:43:58.258Z,1.65
2023-03-28T14:47:01.480Z,2.40
2023-03-28T14:50:05.390Z,2.25
2023-03-28T14:53:17.358Z,1.20
2023-03-28T14:56:27.486Z,1.50
2023-03-28T14:59:43.689Z,1.37
2023-03-28T15:02:46.893Z,1.87
2023-03-28T15:05:51.995Z,3.33
2023-03-28T15:08:59.024Z,1.40
2023-03-28T15:12:08.073Z,1.17
2023-03-28T15:15:25.882Z,1.70
2023-03-28T15:18:33.565Z,1.37
2023-03-28T15:21:38.473Z,1.95
2023-03-28T15:24:41.553Z,1.10
2023-03-28T15:27:50.157Z,1.90
2023-03-28T15:30:55.949Z,2.15
2023-03-28T15:33:58.825Z,1.23
2023-03-28T15:37:03.732Z,2.80
2023-03-28T15:40:29.210Z,5.13
2023-03-28T15:43:39.564Z,2.90
2023-03-28T15:46:42.154Z,2.12
2023-03-28T15:49:45.562Z,7.12
2023-03-28T15:52:48.087Z,2.40
2023-03-28T15:55:51.155Z,3.07
2023-03-28T15:59:02.319Z,1.90
2023-03-28T16:02:28.382Z,2.95
2023-03-28T16:05:37.066Z,2.42
2023-03-28T16:08:48.816Z,1.40
2023-03-28T16:12:00.536Z,2.17
2023-03-28T16:15:06.424Z,5.00
2023-03-28T16:18:09.869Z,1.83
2023-03-28T16:21:12.884Z,1.67
2023-03-28T16:24:16.237Z,4.05
2023-03-28T16:27:19.855Z,2.20
2023-03-28T16:30:30.461Z,2.60
2023-03-28T16:33:32.871Z,2.42
2023-03-28T16:36:35.630Z,3.22
2023-03-28T16:39:38.944Z,2.30
2023-03-28T16:42:42.109Z,3.80
2023-03-28T16:45:49.047Z,4.23
2023-03-28T16:48:52.271Z,3.42
2023-03-28T16:51:55.836Z,3.20
2023-03-28T16:54:58.525Z,3.35
2023-03-28T16:58:01.022Z,2.73
2023-03-28T17:01:07.401Z,3.30
2023-03-28T17:04:09.923Z,4.35
2023-03-28T17:07:12.527Z,4.37
2023-03-28T17:10:14.960Z,2.95
2023-03-28T17:13:17.811Z,4.30
2023-03-28T17:16:22.451Z,3.33
2023-03-28T17:19:25.247Z,5.05
2023-03-28T17:22:27.584Z,5.05
2023-03-28T17:25:30.238Z,6.12
2023-03-28T17:28:33.264Z,7.07
2023-03-28T17:31:36.207Z,8.43
2023-03-28T17:34:39.039Z,6.90
2023-03-28T17:37:41.839Z,7.30
2023-03-28T17:40:48.517Z,9.80
2023-03-28T17:43:52.596Z,8.67
2023-03-28T17:46:56.779Z,10.90
2023-03-28T17:50:00.442Z,8.35
2023-03-28T17:53:02.878Z,12.02
2023-03-28T17:56:07.111Z,7.32
2023-03-28T17:59:09.488Z,5.93
2023-03-28T18:02:12.240Z,7.70
2023-03-28T18:05:16.991Z,8.95
2023-03-28T18:08:20.223Z,8.32
2023-03-28T18:11:23.089Z,6.87
2023-03-28T18:14:25.668Z,6.13
2023-03-28T18:17:28.741Z,8.27
2023-03-28T18:20:31.178Z,6.90
2023-03-28T18:23:34.799Z,11.82
2023-03-28T18:26:37.104Z,10.40
2023-03-28T18:29:39.901Z,8.80
2023-03-28T18:32:42.418Z,7.90
2023-03-28T18:35:49.131Z,7.72
2023-03-28T18:38:53.150Z,11.85
2023-03-28T18:41:56.017Z,6.28
2023-03-28T18:44:58.448Z,7.93
2023-03-28T18:48:01.164Z,6.87
2023-03-28T18:51:06.400Z,6.30
2023-03-28T18:54:09.202Z,7.80
2023-03-28T18:57:12.224Z,8.98
2023-03-28T19:00:18.739Z,9.60
2023-03-28T19:03:21.429Z,7.03
2023-03-28T19:06:24.471Z,11.10
2023-03-28T19:09:26.853Z,11.52
2023-03-28T19:12:29.551Z,11.02
2023-03-28T19:15:32.326Z,11.60
2023-03-28T19:18:39.080Z,10.85
2023-03-28T19:21:41.485Z,12.13
2023-03-28T19:24:44.153Z,11.48
2023-03-28T19:27:49.683Z,10.30
2023-03-28T19:31:01.654Z,8.73
2023-03-28T19:34:04.244Z,8.37
2023-03-28T19:37:06.993Z,6.57
2023-03-28T19:40:09.681Z,5.87
2023-03-28T19:43:12.374Z,6.50
2023-03-28T19:46:22.049Z,6.67
2023-03-28T19:49:26.531Z,6.63
2023-03-28T19:52:28.896Z,4.70
2023-03-28T19:55:31.598Z,4.93
2023-03-28T19:58:33.978Z,6.50
2023-03-28T20:01:37.182Z,5.93
2023-03-28T20:04:40.020Z,8.03
2023-03-28T20:07:42.496Z,4.97
2023-03-28T20:10:47.674Z,7.78
2023-03-28T20:13:50.413Z,6.03
2023-03-28T20:16:53.098Z,6.57
2023-03-28T20:19:55.413Z,6.43
2023-03-28T20:22:59.887Z,5.50
2023-03-28T20:26:15.782Z,10.23
2023-03-28T20:29:18.967Z,6.03
2023-03-28T20:32:21.410Z,8.63
2023-03-28T20:35:26.514Z,7.55
2023-03-28T20:38:30.059Z,6.35
2023-03-28T20:41:32.706Z,4.97
2023-03-28T20:44:38.136Z,5.65
2023-03-28T20:47:43.166Z,6.40
2023-03-28T20:50:46.421Z,7.10
2023-03-28T20:53:51.253Z,6.32
2023-03-28T20:56:54.308Z,6.80
2023-03-28T20:59:58.094Z,7.30
2023-03-28T21:03:00.607Z,5.67
2023-03-28T21:06:05.590Z,7.43
2023-03-28T21:09:11.226Z,7.05
2023-03-28T21:12:13.863Z,7.30
2023-03-28T21:15:17.033Z,8.07
2023-03-28T21:18:19.724Z,7.20
2023-03-28T21:21:22.218Z,4.80
2023-03-28T21:24:24.887Z,4.07
2023-03-28T21:27:27.357Z,5.47
2023-03-28T21:30:30.077Z,5.80
2023-03-28T21:33:32.483Z,5.40
2023-03-28T21:36:35.281Z,6.12
2023-03-28T21:39:39.398Z,4.22
2023-03-28T21:42:42.677Z,4.55
2023-03-28T21:45:46.281Z,4.85
2023-03-28T21:48:50.024Z,5.07
2023-03-28T21:51:55.739Z,3.85
2023-03-28T21:54:58.732Z,5.65
2023-03-28T21:58:01.476Z,4.43
2023-03-28T22:01:04.981Z,8.10
2023-03-28T22:04:07.978Z,5.17
2023-03-28T22:07:10.832Z,6.05
2023-03-28T22:10:14.142Z,4.95
2023-03-28T22:13:16.528Z,5.45
2023-03-28T22:16:19.274Z,6.40
2023-03-28T22:19:21.742Z,5.27
2023-03-28T22:22:28.070Z,3.25
2023-03-28T22:25:34.914Z,5.50
2023-03-28T22:28:38.425Z,4.55
2023-03-28T22:31:40.955Z,5.37
2023-03-28T22:34:44.870Z,4.60
2023-03-28T22:37:47.228Z,5.40
2023-03-28T22:40:49.892Z,7.43
2023-03-28T22:43:52.282Z,5.37
2023-03-28T22:47:02.120Z,4.68
2023-03-28T22:50:14.783Z,3.83
2023-03-28T22:53:18.288Z,4.73
2023-03-28T22:56:20.882Z,3.53
2023-03-28T22:59:24.151Z,5.90
2023-03-28T23:02:26.548Z,3.55
2023-03-28T23:05:29.449Z,3.93
2023-03-28T23:08:33.879Z,4.75
2023-03-28T23:11:36.671Z,4.80
2023-03-28T23:14:39.297Z,3.28
2023-03-28T23:17:42.971Z,5.45
2023-03-28T23:20:51.021Z,5.03
2023-03-28T23:23:53.942Z,4.93
2023-03-28T23:26:56.638Z,4.15
2023-03-28T23:29:59.364Z,3.90
2023-03-28T23:33:02.089Z,3.85
2023-03-28T23:36:06.161Z,4.63
2023-03-28T23:39:11.116Z,4.67
2023-03-28T23:42:13.790Z,4.07
2023-03-28T23:45:16.567Z,3.03
2023-03-28T23:48:19.250Z,6.82
2023-03-28T23:51:21.844Z,3.30
2023-03-28T23:54:25.943Z,4.20
2023-03-28T23:57:29.326Z,3.58
